sensor_id;sensor_type;location;lat;lon;timestamp;temperature;humidity
43528;DHT22;52359;42.658;23.320;2023-09-19T00:00:37;17.60;99.90
43528;DHT22;52359;42.658;23.320;2023-09-19T00:03:03;17.50;99.90
43528;DHT22;52359;42.658;23.320;2023-09-19T00:05:35;17.50;99.90
43528;DHT22;52359;42.658;23.320;2023-09-19T00:08:02;17.40;99.90
43528;DHT22;52359;42.658;23.320;2023-09-19T00:10:32;17.30;99.90
43528;DHT22;52359;42.658;23.320;2023-09-19T00:13:00;17.30;99.90
43528;DHT22;52359;42.658;23.320;2023-09-19T00:15:31;17.40;99.90
43528;DHT22;52359;42.658;23.320;2023-09-19T00:17:58;17.30;99.90
43528;DHT22;52359;42.658;23.320;2023-09-19T00:20:24;17.60;99.90
43528;DHT22;52359;42.658;23.320;2023-09-19T00:22:50;17.60;99.90
43528;DHT22;52359;42.658;23.320;2023-09-19T00:47:43;17.40;99.90
43528;DHT22;52359;42.658;23.320;2023-09-19T00:50:10;17.20;99.90
43528;DHT22;52359;42.658;23.320;2023-09-19T00:52:39;17.20;99.90
43528;DHT22;52359;42.658;23.320;2023-09-19T00:55:08;17.20;99.90
43528;DHT22;52359;42.658;23.320;2023-09-19T00:57:35;17.00;99.90
43528;DHT22;52359;42.658;23.320;2023-09-19T01:00:03;17.10;99.90
43528;DHT22;52359;42.658;23.320;2023-09-19T01:02:34;17.00;99.90
43528;DHT22;52359;42.658;23.320;2023-09-19T01:09:57;17.00;99.90
43528;DHT22;52359;42.658;23.320;2023-09-19T01:12:34;16.90;99.90
43528;DHT22;52359;42.658;23.320;2023-09-19T01:17:48;16.80;99.90
43528;DHT22;52359;42.658;23.320;2023-09-19T01:21:04;16.80;99.90
43528;DHT22;52359;42.658;23.320;2023-09-19T01:23:22;16.80;99.90
43528;DHT22;52359;42.658;23.320;2023-09-19T01:26:17;16.90;99.90
43528;DHT22;52359;42.658;23.320;2023-09-19T01:31:33;16.90;99.90
43528;DHT22;52359;42.658;23.320;2023-09-19T01:34:02;17.00;99.90
43528;DHT22;52359;42.658;23.320;2023-09-19T01:36:34;16.90;99.90
43528;DHT22;52359;42.658;23.320;2023-09-19T01:46:48;16.60;99.90
43528;DHT22;52359;42.658;23.320;2023-09-19T01:49:43;16.70;99.90
43528;DHT22;52359;42.658;23.320;2023-09-19T01:52:15;16.60;99.90
43528;DHT22;52359;42.658;23.320;2023-09-19T01:54:52;16.70;99.90
43528;DHT22;52359;42.658;23.320;2023-09-19T01:57:29;16.70;99.90
43528;DHT22;52359;42.658;23.320;2023-09-19T02:00:05;16.60;99.90
43528;DHT22;52359;42.658;23.320;2023-09-19T02:02:38;16.60;99.90
43528;DHT22;52359;42.658;23.320;2023-09-19T02:05:05;16.50;99.90
43528;DHT22;52359;42.658;23.320;2023-09-19T02:07:31;16.50;99.90
43528;DHT22;52359;42.658;23.320;2023-09-19T02:09:58;16.50;99.90
43528;DHT22;52359;42.658;23.320;2023-09-19T02:12:27;16.60;99.90
43528;DHT22;52359;42.658;23.320;2023-09-19T02:14:53;16.40;99.90
43528;DHT22;52359;42.658;23.320;2023-09-19T02:17:18;16.50;99.90
43528;DHT22;52359;42.658;23.320;2023-09-19T02:46:37;15.80;99.90
43528;DHT22;52359;42.658;23.320;2023-09-19T03:18:34;15.50;99.90
43528;DHT22;52359;42.658;23.320;2023-09-19T03:21:00;15.30;99.90
43528;DHT22;52359;42.658;23.320;2023-09-19T03:23:27;15.30;99.90
43528;DHT22;52359;42.658;23.320;2023-09-19T03:25:53;15.30;99.90
43528;DHT22;52359;42.658;23.320;2023-09-19T03:28:20;15.40;99.90
43528;DHT22;52359;42.658;23.320;2023-09-19T03:30:57;15.30;99.90
43528;DHT22;52359;42.658;23.320;2023-09-19T03:33:23;15.40;99.90
43528;DHT22;52359;42.658;23.320;2023-09-19T03:38:19;14.90;99.90
43528;DHT22;52359;42.658;23.320;2023-09-19T03:43:11;15.10;99.90
43528;DHT22;52359;42.658;23.320;2023-09-19T03:53:00;15.00;99.90
43528;DHT22;52359;42.658;23.320;2023-09-19T03:55:26;15.30;99.90
43528;DHT22;52359;42.658;23.320;2023-09-19T04:05:13;15.40;99.90
43528;DHT22;52359;42.658;23.320;2023-09-19T04:07:39;15.40;99.90
43528;DHT22;52359;42.658;23.320;2023-09-19T04:10:05;15.30;99.90
43528;DHT22;52359;42.658;23.320;2023-09-19T04:12:34;15.40;99.90
43528;DHT22;52359;42.658;23.320;2023-09-19T06:59:29;20.60;99.90
43528;DHT22;52359;42.658;23.320;2023-09-19T07:01:54;20.70;99.90
43528;DHT22;52359;42.658;23.320;2023-09-19T07:04:20;20.60;99.90
43528;DHT22;52359;42.658;23.320;2023-09-19T07:06:52;20.50;99.90
43528;DHT22;52359;42.658;23.320;2023-09-19T07:09:18;20.50;99.90
43528;DHT22;52359;42.658;23.320;2023-09-19T07:11:47;20.60;99.90
43528;DHT22;52359;42.658;23.320;2023-09-19T07:14:13;20.60;99.90
43528;DHT22;52359;42.658;23.320;2023-09-19T07:16:39;20.60;99.90
43528;DHT22;52359;42.658;23.320;2023-09-19T07:19:08;20.60;99.90
43528;DHT22;52359;42.658;23.320;2023-09-19T07:21:33;20.80;99.90
43528;DHT22;52359;42.658;23.320;2023-09-19T07:24:01;20.80;99.90
43528;DHT22;52359;42.658;23.320;2023-09-19T07:26:28;21.00;99.90
43528;DHT22;52359;42.658;23.320;2023-09-19T07:28:54;21.00;99.90
43528;DHT22;52359;42.658;23.320;2023-09-19T07:31:21;20.90;99.90
43528;DHT22;52359;42.658;23.320;2023-09-19T07:33:48;20.80;99.90
43528;DHT22;52359;42.658;23.320;2023-09-19T07:36:14;20.90;99.90
43528;DHT22;52359;42.658;23.320;2023-09-19T07:38:40;20.80;99.90
43528;DHT22;52359;42.658;23.320;2023-09-19T07:41:07;20.80;99.90
43528;DHT22;52359;42.658;23.320;2023-09-19T07:43:35;20.90;99.90
43528;DHT22;52359;42.658;23.320;2023-09-19T07:46:07;20.90;99.90
43528;DHT22;52359;42.658;23.320;2023-09-19T07:48:35;20.90;99.90
43528;DHT22;52359;42.658;23.320;2023-09-19T07:51:08;21.00;99.90
43528;DHT22;52359;42.658;23.320;2023-09-19T07:53:35;21.00;99.90
43528;DHT22;52359;42.658;23.320;2023-09-19T07:56:05;21.00;99.90
43528;DHT22;52359;42.658;23.320;2023-09-19T07:58:32;20.90;99.90
43528;DHT22;52359;42.658;23.320;2023-09-19T08:01:09;21.10;99.90
43528;DHT22;52359;42.658;23.320;2023-09-19T08:03:38;20.90;99.90
43528;DHT22;52359;42.658;23.320;2023-09-19T08:06:07;21.30;99.90
43528;DHT22;52359;42.658;23.320;2023-09-19T08:08:33;21.50;99.90
43528;DHT22;52359;42.658;23.320;2023-09-19T08:11:06;21.60;99.90
43528;DHT22;52359;42.658;23.320;2023-09-19T08:13:37;21.70;99.90
43528;DHT22;52359;42.658;23.320;2023-09-19T08:16:06;21.60;99.90
43528;DHT22;52359;42.658;23.320;2023-09-19T08:18:31;21.50;99.90
43528;DHT22;52359;42.658;23.320;2023-09-19T08:20:57;21.70;99.90
43528;DHT22;52359;42.658;23.320;2023-09-19T08:23:26;21.90;99.90
43528;DHT22;52359;42.658;23.320;2023-09-19T08:25:56;22.10;99.90
43528;DHT22;52359;42.658;23.320;2023-09-19T08:28:22;22.10;99.90
43528;DHT22;52359;42.658;23.320;2023-09-19T08:30:50;21.90;99.90
43528;DHT22;52359;42.658;23.320;2023-09-19T08:33:16;22.00;99.90
43528;DHT22;52359;42.658;23.320;2023-09-19T08:35:42;22.50;99.90
43528;DHT22;52359;42.658;23.320;2023-09-19T08:38:09;22.40;99.90
43528;DHT22;52359;42.658;23.320;2023-09-19T08:40:39;22.50;99.90
43528;DHT22;52359;42.658;23.320;2023-09-19T08:43:07;22.60;99.90
43528;DHT22;52359;42.658;23.320;2023-09-19T08:45:34;22.80;99.90
43528;DHT22;52359;42.658;23.320;2023-09-19T08:58:25;24.00;99.90
43528;DHT22;52359;42.658;23.320;2023-09-19T09:00:54;24.00;99.90
43528;DHT22;52359;42.658;23.320;2023-09-19T09:03:20;23.90;99.90
43528;DHT22;52359;42.658;23.320;2023-09-19T09:05:47;23.70;99.90
43528;DHT22;52359;42.658;23.320;2023-09-19T09:08:17;23.50;99.90
43528;DHT22;52359;42.658;23.320;2023-09-19T09:10:44;23.50;99.90
43528;DHT22;52359;42.658;23.320;2023-09-19T09:13:10;23.50;99.90
43528;DHT22;52359;42.658;23.320;2023-09-19T10:20:21;25.80;95.20
43528;DHT22;52359;42.658;23.320;2023-09-19T10:23:10;25.80;95.50
43528;DHT22;52359;42.658;23.320;2023-09-19T10:25:43;26.00;95.70
43528;DHT22;52359;42.658;23.320;2023-09-19T10:57:56;25.80;95.50
43528;DHT22;52359;42.658;23.320;2023-09-19T11:03:22;25.60;95.70
43528;DHT22;52359;42.658;23.320;2023-09-19T11:06:30;25.30;95.30
43528;DHT22;52359;42.658;23.320;2023-09-19T11:09:03;25.50;95.10
43528;DHT22;52359;42.658;23.320;2023-09-19T11:11:50;25.50;95.50
43528;DHT22;52359;42.658;23.320;2023-09-19T11:33:28;25.90;95.30
43528;DHT22;52359;42.658;23.320;2023-09-19T11:36:13;25.50;95.00
43528;DHT22;52359;42.658;23.320;2023-09-19T11:46:26;26.90;94.70
43528;DHT22;52359;42.658;23.320;2023-09-19T11:48:54;26.50;94.10
43528;DHT22;52359;42.658;23.320;2023-09-19T11:51:21;26.30;94.50
43528;DHT22;52359;42.658;23.320;2023-09-19T11:53:49;26.30;94.30
43528;DHT22;52359;42.658;23.320;2023-09-19T11:56:16;26.20;94.50
43528;DHT22;52359;42.658;23.320;2023-09-19T11:58:44;26.20;94.90
43528;DHT22;52359;42.658;23.320;2023-09-19T12:01:13;26.30;94.70
43528;DHT22;52359;42.658;23.320;2023-09-19T12:03:43;26.90;94.50
43528;DHT22;52359;42.658;23.320;2023-09-19T12:06:14;27.10;94.40
43528;DHT22;52359;42.658;23.320;2023-09-19T12:08:41;27.20;94.00
43528;DHT22;52359;42.658;23.320;2023-09-19T12:11:14;27.20;93.80
43528;DHT22;52359;42.658;23.320;2023-09-19T12:13:45;27.20;93.70
43528;DHT22;52359;42.658;23.320;2023-09-19T12:16:19;27.40;93.70
43528;DHT22;52359;42.658;23.320;2023-09-19T12:18:49;28.10;93.40
43528;DHT22;52359;42.658;23.320;2023-09-19T12:24:06;28.60;93.00
43528;DHT22;52359;42.658;23.320;2023-09-19T12:26:41;29.50;92.40
43528;DHT22;52359;42.658;23.320;2023-09-19T12:29:17;30.00;92.30
43528;DHT22;52359;42.658;23.320;2023-09-19T12:31:53;30.20;92.70
43528;DHT22;52359;42.658;23.320;2023-09-19T12:34:29;30.20;92.20
43528;DHT22;52359;42.658;23.320;2023-09-19T13:01:43;31.20;90.20
43528;DHT22;52359;42.658;23.320;2023-09-19T13:04:22;32.30;90.20
43528;DHT22;52359;42.658;23.320;2023-09-19T13:06:55;32.10;89.70
43528;DHT22;52359;42.658;23.320;2023-09-19T13:09:26;31.30;90.40
43528;DHT22;52359;42.658;23.320;2023-09-19T13:12:05;30.50;90.80
43528;DHT22;52359;42.658;23.320;2023-09-19T13:15:10;30.30;90.90
43528;DHT22;52359;42.658;23.320;2023-09-19T17:16:13;24.00;97.80
43528;DHT22;52359;42.658;23.320;2023-09-19T17:18:54;24.00;98.00
43528;DHT22;52359;42.658;23.320;2023-09-19T17:21:20;23.80;98.30
43528;DHT22;52359;42.658;23.320;2023-09-19T17:23:45;23.50;98.70
43528;DHT22;52359;42.658;23.320;2023-09-19T17:26:12;23.50;99.00
43528;DHT22;52359;42.658;23.320;2023-09-19T17:28:49;23.30;99.10
43528;DHT22;52359;42.658;23.320;2023-09-19T17:31:16;23.50;99.10
43528;DHT22;52359;42.658;23.320;2023-09-19T17:33:44;23.30;99.10
43528;DHT22;52359;42.658;23.320;2023-09-19T17:36:15;23.30;99.20
43528;DHT22;52359;42.658;23.320;2023-09-19T17:38:43;23.10;99.30
43528;DHT22;52359;42.658;23.320;2023-09-19T17:41:10;23.20;99.80
43528;DHT22;52359;42.658;23.320;2023-09-19T17:43:37;22.90;99.90
43528;DHT22;52359;42.658;23.320;2023-09-19T17:48:41;22.90;99.90
43528;DHT22;52359;42.658;23.320;2023-09-19T17:51:08;22.70;99.90
43528;DHT22;52359;42.658;23.320;2023-09-19T17:53:37;22.80;99.90
43528;DHT22;52359;42.658;23.320;2023-09-19T17:56:08;22.60;99.90
43528;DHT22;52359;42.658;23.320;2023-09-19T17:58:37;22.50;99.90
43528;DHT22;52359;42.658;23.320;2023-09-19T18:01:16;22.40;99.90
43528;DHT22;52359;42.658;23.320;2023-09-19T18:21:01;22.40;99.90
43528;DHT22;52359;42.658;23.320;2023-09-19T18:33:24;22.30;99.90
43528;DHT22;52359;42.658;23.320;2023-09-19T18:35:53;22.30;99.90
43528;DHT22;52359;42.658;23.320;2023-09-19T18:38:19;22.20;99.90
43528;DHT22;52359;42.658;23.320;2023-09-19T18:40:45;22.10;99.90
43528;DHT22;52359;42.658;23.320;2023-09-19T18:43:11;22.10;99.90
43528;DHT22;52359;42.658;23.320;2023-09-19T18:45:37;22.10;99.90
43528;DHT22;52359;42.658;23.320;2023-09-19T18:48:04;22.10;99.90
43528;DHT22;52359;42.658;23.320;2023-09-19T18:50:30;22.20;99.90
43528;DHT22;52359;42.658;23.320;2023-09-19T18:52:56;22.10;99.90
43528;DHT22;52359;42.658;23.320;2023-09-19T18:55:22;22.10;99.90
43528;DHT22;52359;42.658;23.320;2023-09-19T18:57:49;22.10;99.90
43528;DHT22;52359;42.658;23.320;2023-09-19T19:00:17;22.00;99.90
43528;DHT22;52359;42.658;23.320;2023-09-19T19:02:45;21.90;99.90
43528;DHT22;52359;42.658;23.320;2023-09-19T19:05:12;21.90;99.90
43528;DHT22;52359;42.658;23.320;2023-09-19T19:07:41;21.90;99.90
43528;DHT22;52359;42.658;23.320;2023-09-19T19:10:07;22.10;99.90
43528;DHT22;52359;42.658;23.320;2023-09-19T19:12:34;22.10;99.90
43528;DHT22;52359;42.658;23.320;2023-09-19T19:15:01;21.80;99.90
43528;DHT22;52359;42.658;23.320;2023-09-19T19:17:32;21.80;99.90
43528;DHT22;52359;42.658;23.320;2023-09-19T19:19:58;21.80;99.90
43528;DHT22;52359;42.658;23.320;2023-09-19T19:22:24;21.70;99.90
43528;DHT22;52359;42.658;23.320;2023-09-19T19:24:50;21.90;99.90
43528;DHT22;52359;42.658;23.320;2023-09-19T19:27:16;21.80;99.90
43528;DHT22;52359;42.658;23.320;2023-09-19T19:29:42;21.80;99.90
43528;DHT22;52359;42.658;23.320;2023-09-19T19:32:07;21.50;99.90
43528;DHT22;52359;42.658;23.320;2023-09-19T19:34:34;21.60;99.90
43528;DHT22;52359;42.658;23.320;2023-09-19T19:37:00;21.60;99.90
43528;DHT22;52359;42.658;23.320;2023-09-19T19:39:26;21.60;99.90
43528;DHT22;52359;42.658;23.320;2023-09-19T19:41:52;21.50;99.90
43528;DHT22;52359;42.658;23.320;2023-09-19T19:44:18;21.50;99.90
43528;DHT22;52359;42.658;23.320;2023-09-19T19:46:46;21.70;99.90
43528;DHT22;52359;42.658;23.320;2023-09-19T19:49:12;21.60;99.90
43528;DHT22;52359;42.658;23.320;2023-09-19T19:51:38;21.50;99.90
43528;DHT22;52359;42.658;23.320;2023-09-19T19:54:04;21.50;99.90
43528;DHT22;52359;42.658;23.320;2023-09-19T19:56:30;21.70;99.90
43528;DHT22;52359;42.658;23.320;2023-09-19T19:58:59;21.50;99.90
43528;DHT22;52359;42.658;23.320;2023-09-19T20:01:25;21.40;99.90
43528;DHT22;52359;42.658;23.320;2023-09-19T20:03:51;21.60;99.90
43528;DHT22;52359;42.658;23.320;2023-09-19T20:06:17;21.60;99.90
43528;DHT22;52359;42.658;23.320;2023-09-19T20:08:45;21.60;99.90
43528;DHT22;52359;42.658;23.320;2023-09-19T20:11:10;21.50;99.90
43528;DHT22;52359;42.658;23.320;2023-09-19T20:13:36;21.50;99.90
43528;DHT22;52359;42.658;23.320;2023-09-19T20:16:04;21.40;99.90
43528;DHT22;52359;42.658;23.320;2023-09-19T20:18:30;21.50;99.90
43528;DHT22;52359;42.658;23.320;2023-09-19T20:21:07;21.50;99.90
43528;DHT22;52359;42.658;23.320;2023-09-19T20:23:39;21.40;99.90
43528;DHT22;52359;42.658;23.320;2023-09-19T20:26:07;21.30;99.90
43528;DHT22;52359;42.658;23.320;2023-09-19T20:28:33;21.20;99.90
43528;DHT22;52359;42.658;23.320;2023-09-19T20:31:05;21.10;99.90
43528;DHT22;52359;42.658;23.320;2023-09-19T20:33:33;20.70;99.90
43528;DHT22;52359;42.658;23.320;2023-09-19T20:35:59;20.70;99.90
43528;DHT22;52359;42.658;23.320;2023-09-19T20:38:27;20.60;99.90
43528;DHT22;52359;42.658;23.320;2023-09-19T20:40:52;20.60;99.90
43528;DHT22;52359;42.658;23.320;2023-09-19T20:43:18;20.50;99.90
43528;DHT22;52359;42.658;23.320;2023-09-19T20:45:44;20.40;99.90
43528;DHT22;52359;42.658;23.320;2023-09-19T20:50:36;20.30;99.90
43528;DHT22;52359;42.658;23.320;2023-09-19T20:53:02;20.20;99.90
43528;DHT22;52359;42.658;23.320;2023-09-19T20:55:29;20.30;99.90
43528;DHT22;52359;42.658;23.320;2023-09-19T20:57:55;20.20;99.90
43528;DHT22;52359;42.658;23.320;2023-09-19T21:00:21;19.80;99.90
43528;DHT22;52359;42.658;23.320;2023-09-19T21:05:15;19.80;99.90
43528;DHT22;52359;42.658;23.320;2023-09-19T21:07:42;19.70;99.90
43528;DHT22;52359;42.658;23.320;2023-09-19T21:10:09;19.70;99.90
43528;DHT22;52359;42.658;23.320;2023-09-19T21:15:01;19.50;99.90
43528;DHT22;52359;42.658;23.320;2023-09-19T21:17:29;19.60;99.90
43528;DHT22;52359;42.658;23.320;2023-09-19T21:19:54;19.40;99.90
43528;DHT22;52359;42.658;23.320;2023-09-19T21:22:20;19.40;99.90
43528;DHT22;52359;42.658;23.320;2023-09-19T21:24:49;19.40;99.90
43528;DHT22;52359;42.658;23.320;2023-09-19T21:27:16;19.50;99.90
43528;DHT22;52359;42.658;23.320;2023-09-19T21:29:42;19.50;99.90
43528;DHT22;52359;42.658;23.320;2023-09-19T21:32:08;19.30;99.90
43528;DHT22;52359;42.658;23.320;2023-09-19T21:34:34;19.10;99.90
43528;DHT22;52359;42.658;23.320;2023-09-19T21:37:01;19.10;99.90
43528;DHT22;52359;42.658;23.320;2023-09-19T21:39:26;19.20;99.90
43528;DHT22;52359;42.658;23.320;2023-09-19T21:41:52;19.00;99.90
